Time;durP1;ratioP1;P1;durP2;ratioP2;P2;SDS_P1;SDS_P2;PMS_P1;PMS_P2;Temp;Humidity;BMP_temperature;BMP_pressure;BME280_temperature;BME280_humidity;BME280_pressure;Samples;Min_cycle;Max_cycle;Signal;HPM_P1;HPM_P2
2024/04/14 00:03:08;;;;;;;13.40;6.43;;;;;;;20.69;100.00;101403.53;11360414;26;20030;-87
2024/04/14 00:08:35;;;;;;;22.02;8.32;;;;;;;20.65;100.00;101411.69;11317139;26;20010;-86
2024/04/14 00:14:01;;;;;;;12.70;6.38;;;;;;;20.68;100.00;101417.88;11354416;26;20072;-87
2024/04/14 00:19:25;;;;;;;12.25;6.65;;;;;;;20.65;100.00;101409.88;11317587;26;20032;-87
2024/04/14 00:24:50;;;;;;;15.70;6.55;;;;;;;20.63;100.00;101417.06;11373081;26;20466;-86
2024/04/14 00:30:18;;;;;;;12.48;6.80;;;;;;;20.59;100.00;101420.72;11350338;26;20037;-86
2024/04/14 00:35:44;;;;;;;11.38;6.35;;;;;;;20.58;100.00;101423.41;11353812;26;20012;-86
2024/04/14 00:41:08;;;;;;;12.88;6.40;;;;;;;20.58;100.00;101434.13;11373713;26;20090;-88
2024/04/14 00:46:35;;;;;;;15.50;6.32;;;;;;;20.59;100.00;101425.19;11329586;26;20082;-87
2024/04/14 00:52:05;;;;;;;13.38;6.90;;;;;;;20.57;100.00;101421.63;11309678;26;20010;-87
2024/04/14 00:57:30;;;;;;;14.27;6.45;;;;;;;20.52;100.00;101416.34;11328000;26;20021;-87
2024/04/14 01:02:59;;;;;;;18.17;6.30;;;;;;;20.56;100.00;101431.47;11341529;26;20005;-86
2024/04/14 01:08:24;;;;;;;14.07;6.43;;;;;;;20.54;100.00;101416.31;11320613;26;20003;-86
2024/04/14 01:13:49;;;;;;;15.43;6.93;;;;;;;20.47;100.00;101423.56;11296267;26;20016;-87
2024/04/14 01:19:16;;;;;;;13.68;6.40;;;;;;;20.41;100.00;101420.09;11364089;26;20469;-86
2024/04/14 01:24:41;;;;;;;13.38;6.18;;;;;;;20.38;100.00;101420.13;11341037;26;20005;-86
2024/04/14 01:30:09;;;;;;;17.02;6.53;;;;;;;20.41;100.00;101422.78;11346908;26;20075;-87
2024/04/14 01:35:33;;;;;;;9.68;5.65;;;;;;;20.38;100.00;101425.47;11341133;26;20018;-87
2024/04/14 01:40:59;;;;;;;13.88;7.30;;;;;;;20.31;100.00;101419.28;11340194;26;20001;-87
2024/04/14 01:46:26;;;;;;;16.67;6.80;;;;;;;20.32;100.00;101421.06;11326168;26;20074;-87
2024/04/14 01:51:50;;;;;;;12.38;7.00;;;;;;;20.19;100.00;101414.97;11332232;26;20014;-87
2024/04/14 01:57:14;;;;;;;11.23;6.28;;;;;;;20.17;100.00;101423.94;11306723;26;19997;-87
2024/04/14 02:02:41;;;;;;;14.07;6.90;;;;;;;20.25;100.00;101414.91;11346804;26;19998;-88
2024/04/14 02:08:06;;;;;;;10.53;6.23;;;;;;;20.21;100.00;101423.03;11367513;26;20057;-88
2024/04/14 02:13:31;;;;;;;11.45;5.50;;;;;;;20.20;100.00;101416.75;11364312;26;20438;-87
2024/04/14 02:18:58;;;;;;;15.18;6.85;;;;;;;20.21;100.00;101417.66;11303869;26;19998;-89
2024/04/14 02:24:24;;;;;;;9.90;5.82;;;;;;;20.17;100.00;101423.94;11354912;26;20001;-88
2024/04/14 02:29:48;;;;;;;12.82;6.05;;;;;;;20.19;100.00;101424.81;11353254;26;20458;-89
2024/04/14 02:35:15;;;;;;;9.05;5.38;;;;;;;20.25;100.00;101438.16;11322349;26;20002;-88
2024/04/14 02:40:39;;;;;;;9.50;6.10;;;;;;;20.25;100.00;101440.81;11388163;26;20490;-88
2024/04/14 02:46:04;;;;;;;9.35;6.15;;;;;;;20.30;100.00;101444.31;11360117;26;20002;-88
2024/04/14 02:51:31;;;;;;;10.02;5.82;;;;;;;20.29;100.00;101447.91;11323730;26;20012;-88
2024/04/14 02:56:55;;;;;;;12.57;6.53;;;;;;;20.25;100.00;101443.50;11369686;26;20063;-88
2024/04/14 03:02:19;;;;;;;13.27;5.72;;;;;;;20.26;100.00;101439.94;11366296;26;20080;-89
2024/04/14 03:07:47;;;;;;;10.10;6.43;;;;;;;20.28;100.00;101433.63;11325323;26;20013;-86
2024/04/14 03:13:11;;;;;;;10.37;6.03;;;;;;;20.28;100.00;101438.13;11337789;26;20398;-88
2024/04/14 03:18:35;;;;;;;13.55;6.13;;;;;;;20.23;100.00;101437.28;11368792;26;20077;-88
2024/04/14 03:24:03;;;;;;;13.60;6.35;;;;;;;20.15;100.00;101449.91;11372542;26;20070;-89
2024/04/14 03:29:27;;;;;;;10.90;6.07;;;;;;;20.12;100.00;101457.97;11311613;26;20002;-84
2024/04/14 03:34:54;;;;;;;11.05;5.55;;;;;;;20.12;100.00;101463.34;11327136;26;20002;-90
2024/04/14 03:40:21;;;;;;;11.98;6.35;;;;;;;20.10;100.00;101470.50;11293704;26;20002;-90
2024/04/14 03:45:46;;;;;;;12.50;6.25;;;;;;;20.07;100.00;101473.25;11333853;26;20632;-91
2024/04/14 03:51:10;;;;;;;11.50;6.40;;;;;;;20.07;100.00;101478.59;11330321;26;20575;-91
2024/04/14 03:56:37;;;;;;;15.85;6.18;;;;;;;20.06;100.00;101471.47;11364073;26;19993;-89
2024/04/14 04:02:01;;;;;;;15.00;6.30;;;;;;;20.07;100.00;101476.81;11360569;26;20006;-90
2024/04/14 04:07:26;;;;;;;12.20;5.80;;;;;;;20.17;100.00;101481.13;11363720;26;20012;-90
2024/04/14 04:12:53;;;;;;;12.02;6.05;;;;;;;20.32;100.00;101480.06;11345616;26;20003;-90
2024/04/14 04:18:17;;;;;;;15.73;6.33;;;;;;;20.48;100.00;101488.84;11342707;26;20009;-91
2024/04/14 04:23:41;;;;;;;11.18;6.18;;;;;;;20.69;100.00;101486.72;11354161;26;20025;-92
2024/04/14 04:29:08;;;;;;;11.77;5.95;;;;;;;20.96;100.00;101485.44;11335472;26;20001;-91
2024/04/14 04:34:32;;;;;;;19.42;6.35;;;;;;;21.24;100.00;101479.66;11326532;26;20016;-89
2024/04/14 04:39:57;;;;;;;10.60;5.90;;;;;;;21.46;100.00;101490.00;11352391;26;20007;-90
2024/04/14 04:45:24;;;;;;;11.00;5.30;;;;;;;21.79;100.00;101491.19;11299323;26;20434;-91
2024/04/14 04:50:49;;;;;;;12.70;5.50;;;;;;;22.14;100.00;101495.03;11338873;26;20011;-89
2024/04/14 04:56:13;;;;;;;14.43;5.78;;;;;;;22.45;100.00;101489.91;11346990;26;20227;-90
2024/04/14 05:01:40;;;;;;;13.52;5.00;;;;;;;22.73;100.00;101499.16;11280199;26;20001;-90
2024/04/14 05:07:04;;;;;;;17.60;5.73;;;;;;;23.00;100.00;101506.59;11377659;26;20006;-90
2024/04/14 05:12:28;;;;;;;13.65;5.25;;;;;;;23.20;100.00;101495.34;11383651;26;20005;-87
2024/04/14 05:17:56;;;;;;;12.35;5.53;;;;;;;23.56;98.80;101496.25;11370526;26;20471;-90
2024/04/14 05:23:20;;;;;;;;;;;;;;;23.82;94.45;101495.56;11337688;26;20005;-89
2024/04/14 05:29:06;;;;;;;9.73;5.03;;;;;;;24.12;91.48;101496.50;11389866;25;20326;-86
2024/04/14 05:34:31;;;;;;;14.18;5.60;;;;;;;24.50;87.38;101501.69;11315988;26;20050;-85
2024/04/14 05:39:55;;;;;;;12.38;4.97;;;;;;;24.86;83.40;101504.19;11287377;26;20008;-86
2024/04/14 05:45:28;;;;;;;14.57;5.00;;;;;;;25.28;80.28;101502.81;11328486;26;19994;-88
2024/04/14 05:50:53;;;;;;;10.30;4.63;;;;;;;25.66;77.00;101509.69;11307175;26;20418;-89
2024/04/14 05:56:18;;;;;;;12.18;4.90;;;;;;;26.13;72.32;101516.06;11312901;26;20006;-87
2024/04/14 06:01:45;;;;;;;10.18;4.47;;;;;;;26.52;65.16;101518.25;11340565;25;20002;-88
2024/04/14 06:07:09;;;;;;;7.13;4.68;;;;;;;26.81;59.80;101519.84;11272994;26;20595;-88
2024/04/14 06:12:34;;;;;;;10.63;4.70;;;;;;;26.98;56.65;101529.09;11299265;26;20017;-88
2024/04/14 06:18:03;;;;;;;13.13;4.22;;;;;;;27.20;55.05;101531.81;11346245;25;20069;-90
2024/04/14 06:23:28;;;;;;;10.60;4.30;;;;;;;27.56;52.94;101525.84;11322645;26;20029;-88
2024/04/14 06:28:52;;;;;;;10.20;4.88;;;;;;;27.62;50.60;101526.47;11275719;26;20002;-92
2024/04/14 06:34:19;;;;;;;9.45;4.65;;;;;;;27.97;49.41;101534.88;11253191;26;20003;-89
2024/04/14 06:39:43;;;;;;;7.97;4.15;;;;;;;28.03;47.13;101532.78;11207590;26;20017;-90
2024/04/14 06:45:08;;;;;;;11.35;4.38;;;;;;;28.29;46.75;101536.22;11230268;26;20000;-88
2024/04/14 06:50:35;;;;;;;13.52;4.18;;;;;;;28.50;46.01;101533.38;11182486;26;20014;-87
2024/04/14 06:56:01;;;;;;;15.18;4.25;;;;;;;28.36;43.92;101533.13;11205532;26;20423;-88
2024/04/14 07:01:25;;;;;;;9.73;4.15;;;;;;;28.60;42.68;101536.56;11244165;26;20072;-88
2024/04/14 07:06:52;;;;;;;8.30;4.25;;;;;;;28.80;42.38;101543.81;11254063;26;20031;-88
2024/04/14 07:12:16;;;;;;;8.02;4.18;;;;;;;29.03;42.43;101535.41;11238531;26;20000;-88
2024/04/14 07:17:40;;;;;;;9.77;4.22;;;;;;;29.09;41.25;101518.78;11213870;26;20436;-87
2024/04/14 07:23:07;;;;;;;9.65;4.35;;;;;;;29.39;39.78;101537.31;11234054;26;20630;-86
2024/04/14 07:28:32;;;;;;;8.63;3.58;;;;;;;29.35;39.19;101536.56;11220586;26;19998;-88
2024/04/14 07:34:01;;;;;;;7.75;4.13;;;;;;;29.62;38.28;101545.16;11216948;26;20003;-89
2024/04/14 07:39:28;;;;;;;10.80;4.10;;;;;;;29.97;36.96;101552.44;11260092;26;20632;-87
2024/04/14 07:44:52;;;;;;;9.18;3.78;;;;;;;30.22;37.27;101553.84;11227482;26;20014;-91
2024/04/14 07:50:16;;;;;;;9.05;3.85;;;;;;;30.45;37.20;101546.22;11201855;26;20003;-94
2024/04/14 07:55:44;;;;;;;5.85;3.38;;;;;;;30.78;35.68;101564.44;11205198;26;20003;-92
2024/04/14 08:01:09;;;;;;;8.73;3.90;;;;;;;31.00;35.13;101556.78;11231674;26;20114;-93
2024/04/14 08:06:34;;;;;;;7.13;3.33;;;;;;;31.29;34.35;101568.78;11195696;26;20352;-92
2024/04/14 08:12:01;;;;;;;8.00;3.30;;;;;;;31.40;33.94;101558.13;11242430;26;20003;-90
2024/04/14 08:17:26;;;;;;;8.40;3.38;;;;;;;31.39;33.83;101564.53;11233223;26;20011;-90
2024/04/14 08:22:50;;;;;;;13.68;3.85;;;;;;;31.37;33.98;101573.81;11235401;26;20003;-86
2024/04/14 08:28:18;;;;;;;9.75;3.90;;;;;;;31.54;34.07;101562.78;11206031;26;20014;-87
2024/04/14 08:33:44;;;;;;;8.20;4.10;;;;;;;31.64;34.34;101572.19;11209872;26;20030;-89
2024/04/14 08:39:08;;;;;;;13.07;3.77;;;;;;;31.91;33.65;101572.41;11243888;26;20071;-86
2024/04/14 08:44:38;;;;;;;8.85;3.78;;;;;;;32.05;33.54;101572.44;11228105;26;20009;-88
2024/04/14 08:50:07;;;;;;;11.35;3.40;;;;;;;31.97;32.76;101569.28;11243774;26;20018;-90
2024/04/14 08:55:35;;;;;;;6.68;3.42;;;;;;;32.44;32.83;101583.66;11180057;26;20472;-89
2024/04/14 09:01:04;;;;;;;11.88;3.83;;;;;;;32.54;32.56;101580.38;11164267;26;20052;-91
2024/04/14 09:06:30;;;;;;;7.85;3.65;;;;;;;32.47;32.36;101589.94;11235718;26;20387;-88
2024/04/14 09:11:55;;;;;;;6.75;3.25;;;;;;;32.49;32.66;101596.19;11174723;26;19999;-89
2024/04/14 09:17:24;;;;;;;9.63;3.70;;;;;;;32.72;32.89;101587.44;11196399;26;20003;-88
2024/04/14 09:22:48;;;;;;;6.88;3.70;;;;;;;33.00;32.35;101579.22;11228029;26;20003;-88
2024/04/14 09:28:15;;;;;;;7.63;3.45;;;;;;;32.78;32.04;101573.38;11210386;26;20004;-86
2024/04/14 09:33:42;;;;;;;;;;;;;;;32.52;32.62;101566.78;11197887;26;20007;-93
2024/04/14 09:39:08;;;;;;;12.07;3.95;;;;;;;32.88;31.83;101574.53;11161176;26;19925;-83
2024/04/14 09:44:33;;;;;;;11.32;3.58;;;;;;;33.02;31.09;101562.66;11171541;26;20004;-88
2024/04/14 09:50:02;;;;;;;7.90;3.73;;;;;;;33.00;30.61;101550.97;11161710;26;20020;-90
2024/04/14 09:55:26;;;;;;;9.50;3.22;;;;;;;33.08;30.53;101560.41;11143835;26;20015;-89
2024/04/14 10:00:51;;;;;;;7.13;2.95;;;;;;;33.21;30.71;101561.38;11159350;26;20114;-84
2024/04/14 10:06:19;;;;;;;7.35;3.45;;;;;;;33.39;30.15;101550.19;11175049;26;20073;-88
2024/04/14 10:11:46;;;;;;;11.90;3.45;;;;;;;33.33;30.26;101545.16;11148318;26;20032;-88
2024/04/14 10:17:10;;;;;;;12.10;4.63;;;;;;;33.20;30.00;101540.50;11211088;26;20003;-84
2024/04/14 10:22:38;;;;;;;8.50;4.32;;;;;;;33.02;30.65;101541.66;11190830;26;19996;-86
2024/04/14 10:28:02;;;;;;;7.40;3.20;;;;;;;32.91;29.97;101546.97;11192549;26;20036;-84
2024/04/14 10:33:27;;;;;;;9.68;3.33;;;;;;;32.76;30.13;101542.47;11231930;26;20030;-85
2024/04/14 10:38:55;;;;;;;12.90;3.95;;;;;;;32.32;30.42;101554.38;11238089;26;20475;-85
2024/04/14 10:44:21;;;;;;;7.40;3.03;;;;;;;31.97;31.15;101548.31;11206881;26;20816;-84
2024/04/14 10:49:45;;;;;;;12.18;3.60;;;;;;;31.95;31.28;101516.63;11226654;26;20016;-84
2024/04/14 10:55:13;;;;;;;9.35;3.63;;;;;;;31.61;31.90;101529.59;11192447;26;20454;-84
2024/04/14 11:00:38;;;;;;;9.25;3.53;;;;;;;31.46;32.32;101516.81;11176519;26;20436;-88
2024/04/14 11:06:03;;;;;;;7.60;3.25;;;;;;;31.20;32.52;101501.09;11224189;26;20007;-85
2024/04/14 11:11:31;;;;;;;7.20;3.53;;;;;;;30.77;32.90;101486.31;11207469;26;20018;-89
2024/04/14 11:16:55;;;;;;;10.50;3.05;;;;;;;30.57;33.29;101505.63;11186404;26;20429;-85
2024/04/14 11:22:20;;;;;;;10.88;3.05;;;;;;;30.61;33.27;101529.03;11196585;26;20058;-87
2024/04/14 11:27:48;;;;;;;6.65;3.03;;;;;;;30.58;33.32;101485.59;11213166;26;20357;-87
2024/04/14 11:33:12;;;;;;;12.65;4.15;;;;;;;30.42;33.51;101483.69;11207514;26;19999;-84
2024/04/14 11:38:39;;;;;;;7.90;3.38;;;;;;;30.52;33.68;101492.28;11162965;26;20073;-87
2024/04/14 11:44:07;;;;;;;6.25;3.22;;;;;;;30.55;33.63;101480.28;11206018;26;20079;-89
2024/04/14 11:49:31;;;;;;;8.88;2.75;;;;;;;30.49;34.03;101489.69;11222242;26;20007;-88
2024/04/14 11:54:55;;;;;;;7.00;2.92;;;;;;;30.23;34.14;101473.88;11254196;26;20026;-89
2024/04/14 12:00:23;;;;;;;6.75;3.22;;;;;;;30.06;33.93;101456.59;11254308;26;19996;-90
2024/04/14 12:05:47;;;;;;;5.88;2.75;;;;;;;29.94;33.53;101453.66;11229545;26;20032;-89
2024/04/14 12:11:11;;;;;;;8.45;3.00;;;;;;;29.75;33.29;101451.00;11252789;26;20077;-85
2024/04/14 12:16:38;;;;;;;8.05;2.75;;;;;;;29.40;33.66;101444.72;11205758;26;20080;-89
2024/04/14 12:22:03;;;;;;;9.95;3.15;;;;;;;29.04;34.63;101444.69;11202219;26;20412;-88
2024/04/14 12:27:27;;;;;;;7.72;3.08;;;;;;;29.12;34.75;101438.88;11249409;26;20003;-91
2024/04/14 12:32:55;;;;;;;9.15;3.75;;;;;;;29.08;34.82;101429.97;11278295;26;20782;-92
2024/04/14 12:38:19;;;;;;;11.48;3.50;;;;;;;28.78;35.52;101397.06;11241564;26;19999;-91
2024/04/14 12:43:43;;;;;;;6.32;2.92;;;;;;;28.47;36.29;101416.69;11272971;26;20022;-89
2024/04/14 12:49:10;;;;;;;8.75;3.22;;;;;;;28.01;37.55;101408.94;11265590;26;20000;-89
2024/04/14 12:54:34;;;;;;;13.15;3.92;;;;;;;27.90;38.03;101412.13;11214192;26;20324;-88
2024/04/14 12:59:59;;;;;;;10.25;3.38;;;;;;;27.69;38.69;101410.41;11186304;26;20018;-88
2024/04/14 13:05:26;;;;;;;11.73;3.80;;;;;;;27.53;39.54;101423.75;11239368;26;20000;-88
2024/04/14 13:10:50;;;;;;;;;;;;;;;27.45;39.65;101416.88;11217158;26;20018;-90
2024/04/14 13:16:14;;;;;;;7.90;3.47;;;;;;;27.47;39.54;101428.53;11220196;26;20348;-91
2024/04/14 13:21:42;;;;;;;10.23;3.83;;;;;;;27.53;39.41;101421.03;11187943;26;19999;-88
2024/04/14 13:27:07;;;;;;;10.70;3.60;;;;;;;27.61;38.89;101429.72;11222218;26;20016;-87
2024/04/14 13:32:31;;;;;;;7.28;3.75;;;;;;;27.62;38.78;101423.34;11222411;26;20007;-87
2024/04/14 13:37:58;;;;;;;12.23;4.25;;;;;;;27.60;39.31;101421.66;11266393;26;19998;-85
2024/04/14 13:43:22;;;;;;;8.50;3.40;;;;;;;27.52;39.21;101419.28;11243971;26;20003;-86
2024/04/14 13:48:46;;;;;;;10.40;3.45;;;;;;;27.30;39.69;101404.88;11226453;26;20463;-88
2024/04/14 13:54:13;;;;;;;7.53;4.10;;;;;;;27.31;40.03;101412.03;11259680;26;20025;-87
2024/04/14 13:59:38;;;;;;;10.48;4.05;;;;;;;27.18;40.44;101397.25;11252666;26;20040;-90
2024/04/14 14:05:02;;;;;;;8.63;3.40;;;;;;;27.10;40.74;101396.72;11191691;26;19999;-90
2024/04/14 14:10:31;;;;;;;11.38;3.47;;;;;;;27.03;40.90;101401.53;11243396;26;20015;-88
2024/04/14 14:15:56;;;;;;;11.60;3.78;;;;;;;27.09;41.19;101401.25;11202440;26;20013;-91
2024/04/14 14:21:21;;;;;;;7.13;3.63;;;;;;;27.16;40.54;101385.59;11215010;26;20002;-92
2024/04/14 14:26:48;;;;;;;10.55;4.32;;;;;;;27.14;41.10;101398.34;11239968;26;20014;-91
2024/04/14 14:32:12;;;;;;;8.98;3.55;;;;;;;27.14;41.27;101398.34;11249942;26;20375;-91
2024/04/14 14:37:38;;;;;;;9.90;4.28;;;;;;;27.16;41.14;101383.78;11239643;26;20009;-85
2024/04/14 14:43:05;;;;;;;12.40;4.47;;;;;;;27.00;41.53;101396.22;11222417;26;20067;-84
2024/04/14 14:48:30;;;;;;;11.00;4.00;;;;;;;27.07;41.43;101392.28;11250234;26;20043;-89
2024/04/14 14:53:55;;;;;;;7.30;3.63;;;;;;;27.03;41.17;101384.38;11292242;26;19998;-90
2024/04/14 14:59:23;;;;;;;7.53;3.90;;;;;;;27.05;40.98;101387.88;11270305;26;19998;-92
2024/04/14 15:04:47;;;;;;;11.70;3.97;;;;;;;26.70;41.72;101387.50;11278086;26;20303;-94
2024/04/14 15:10:13;;;;;;;9.48;4.40;;;;;;;26.21;43.27;101383.13;11317471;26;20401;-94
2024/04/14 15:15:41;;;;;;;9.88;3.70;;;;;;;25.93;44.75;101391.44;11229922;26;19999;-94
2024/04/14 15:21:06;;;;;;;12.93;4.13;;;;;;;25.72;46.12;101401.25;11228230;26;20023;-95
2024/04/14 15:26:30;;;;;;;10.30;4.72;;;;;;;25.59;47.13;101412.59;11229412;26;20016;-92
2024/04/14 15:31:59;;;;;;;11.48;4.07;;;;;;;25.44;48.97;101405.84;11344473;26;20018;-92
2024/04/14 15:37:23;;;;;;;15.23;5.03;;;;;;;25.21;50.28;101414.75;11251168;26;20007;-92
2024/04/14 15:42:49;;;;;;;14.55;6.00;;;;;;;25.01;52.17;101422.66;11305800;26;20331;-92
2024/04/14 15:48:16;;;;;;;13.13;5.07;;;;;;;24.91;54.04;101416.69;11303517;26;20067;-93
2024/04/14 15:53:42;;;;;;;17.00;9.75;;;;;;;24.67;55.75;101422.00;11254244;26;20027;-91
2024/04/14 15:59:07;;;;;;;14.50;5.00;;;;;;;24.55;56.27;101415.13;11259045;26;20461;-95
2024/04/14 16:04:34;;;;;;;11.80;5.07;;;;;;;24.50;55.11;101422.50;11234740;26;20002;-95
2024/04/14 16:09:59;;;;;;;16.77;5.37;;;;;;;24.40;54.95;101416.53;11263714;26;20003;-95
2024/04/14 16:15:23;;;;;;;10.23;5.38;;;;;;;24.35;55.43;101404.97;11301770;26;19999;-95
2024/04/14 16:20:59;;;;;;;17.17;4.75;;;;;;;24.24;57.68;101409.81;11288193;26;20066;-94
2024/04/14 16:26:23;;;;;;;10.38;4.65;;;;;;;24.13;57.39;101410.13;11379212;26;20481;-94
2024/04/14 16:31:49;;;;;;;9.88;4.30;;;;;;;23.92;58.63;101394.56;11276309;26;19998;-93
2024/04/14 16:37:17;;;;;;;15.90;5.65;;;;;;;23.73;60.37;101410.38;11267730;26;19995;-95
2024/04/14 16:42:44;;;;;;;10.30;4.25;;;;;;;23.57;61.38;101413.53;11265998;26;20020;-94
2024/04/14 16:48:09;;;;;;;12.43;4.72;;;;;;;23.41;63.46;101410.38;11326247;26;20403;-93
2024/04/14 16:53:36;;;;;;;10.45;4.30;;;;;;;23.25;66.62;101417.06;11305749;26;20031;-95
2024/04/14 16:59:00;;;;;;;8.47;4.17;;;;;;;23.15;66.90;101424.53;11255437;26;20557;-87
2024/04/14 17:04:25;;;;;;;11.02;4.30;;;;;;;23.13;67.94;101433.56;11238898;26;20075;-90
2024/04/14 17:09:52;;;;;;;12.25;4.53;;;;;;;23.07;69.64;101428.31;11222651;26;20003;-95
2024/04/14 17:15:17;;;;;;;14.23;5.25;;;;;;;22.77;82.80;101417.41;11266582;26;20023;-94
2024/04/14 17:20:41;;;;;;;8.57;4.50;;;;;;;22.37;87.96;101419.22;11258756;26;20477;-83
2024/04/14 17:26:09;;;;;;;11.75;5.28;;;;;;;22.18;93.45;101418.75;11233327;26;20007;-87
2024/04/14 17:31:33;;;;;;;11.23;4.80;;;;;;;21.92;95.37;101434.50;11280488;26;20072;-87
2024/04/14 17:36:57;;;;;;;10.25;5.18;;;;;;;21.82;96.78;101433.78;11246645;26;20007;-88
2024/04/14 17:42:25;;;;;;;11.68;4.00;;;;;;;21.72;97.99;101411.59;11222237;26;19998;-89
2024/04/14 17:47:49;;;;;;;11.73;4.80;;;;;;;21.67;98.23;101413.47;11274571;26;20006;-93
2024/04/14 17:53:13;;;;;;;9.77;4.68;;;;;;;21.73;97.98;101424.09;11219632;26;20783;-86
2024/04/14 17:58:40;;;;;;;16.52;4.88;;;;;;;21.71;99.97;101447.44;11234545;26;20003;-92
2024/04/14 18:04:04;;;;;;;9.27;4.63;;;;;;;21.71;100.00;101444.75;11216569;26;20003;-86
2024/04/14 18:09:28;;;;;;;11.38;5.00;;;;;;;21.70;100.00;101444.78;11190492;26;20027;-89
2024/04/14 18:14:58;;;;;;;14.82;4.57;;;;;;;21.73;100.00;101456.34;11188031;26;19999;-91
2024/04/14 18:20:24;;;;;;;9.95;4.35;;;;;;;21.72;100.00;101453.72;11245605;26;20002;-89
2024/04/14 18:25:49;;;;;;;9.60;4.63;;;;;;;21.69;100.00;101461.81;11246030;26;20003;-89
2024/04/14 18:31:17;;;;;;;7.28;4.20;;;;;;;21.69;100.00;101472.56;11214453;26;19999;-89
2024/04/14 18:36:44;;;;;;;10.52;4.47;;;;;;;21.67;100.00;101480.66;11229872;26;20018;-86
2024/04/14 18:42:08;;;;;;;17.80;5.53;;;;;;;21.67;100.00;101469.03;11265582;26;20046;-87
2024/04/14 18:47:35;;;;;;;19.08;5.85;;;;;;;21.67;100.00;101477.09;11298395;26;20549;-90
2024/04/14 18:53:00;;;;;;;16.05;7.93;;;;;;;21.69;100.00;101488.69;11237850;26;20003;-86
2024/04/14 18:58:24;;;;;;;9.02;4.53;;;;;;;21.66;99.20;101486.94;11298278;26;19999;-86
2024/04/14 19:03:54;;;;;;;14.52;4.32;;;;;;;21.68;98.46;101482.44;11239500;26;20011;-90
2024/04/14 19:09:18;;;;;;;9.73;4.35;;;;;;;21.67;97.89;101487.84;11281848;26;20015;-93
2024/04/14 19:14:43;;;;;;;11.05;4.38;;;;;;;21.68;97.38;101495.00;11251554;26;20025;-95
2024/04/14 19:20:11;;;;;;;11.88;4.93;;;;;;;21.67;96.98;101495.91;11325249;26;20369;-96
2024/04/14 19:25:36;;;;;;;10.65;4.43;;;;;;;21.65;97.17;101495.06;11205558;26;20034;-95
2024/04/14 19:31:00;;;;;;;13.45;4.63;;;;;;;21.57;98.30;101499.69;11236678;26;20034;-96
2024/04/14 19:36:29;;;;;;;15.05;4.47;;;;;;;21.55;99.42;101512.25;11220780;26;19998;-95
2024/04/14 19:41:53;;;;;;;11.52;4.85;;;;;;;21.53;99.42;101508.72;11233152;26;19995;-93
2024/04/14 19:47:18;;;;;;;10.05;4.50;;;;;;;21.52;99.41;101501.56;11266027;26;20066;-91
2024/04/14 19:52:45;;;;;;;7.68;4.43;;;;;;;21.46;99.95;101486.44;11253670;26;20009;-90
2024/04/14 19:58:10;;;;;;;10.93;5.03;;;;;;;21.41;100.00;101491.00;11233607;26;19998;-95
2024/04/14 20:03:34;;;;;;;8.98;4.68;;;;;;;21.37;100.00;101486.59;11199970;26;20037;-95
2024/04/14 20:09:04;;;;;;;8.15;4.63;;;;;;;21.37;100.00;101487.47;11304407;26;20042;-94
2024/04/14 20:14:28;;;;;;;8.70;4.28;;;;;;;21.34;100.00;101478.56;11209643;26;20015;-96
2024/04/14 20:19:54;;;;;;;7.07;4.47;;;;;;;21.32;100.00;101494.75;11238723;26;20439;-94
2024/04/14 20:25:20;;;;;;;13.40;4.60;;;;;;;21.36;100.00;101495.56;11269580;26;20028;-94
2024/04/14 20:30:44;;;;;;;8.60;4.35;;;;;;;21.40;100.00;101502.66;11257509;26;20006;-93
2024/04/14 20:36:11;;;;;;;10.82;4.32;;;;;;;21.36;100.00;101507.19;11311717;26;20498;-96
2024/04/14 20:41:38;;;;;;;12.10;4.15;;;;;;;21.33;100.00;101507.22;11280079;26;20071;-89
2024/04/14 20:47:02;;;;;;;12.33;4.40;;;;;;;21.35;100.00;101520.66;11250486;26;19999;-91
2024/04/14 20:52:26;;;;;;;12.43;4.50;;;;;;;21.34;100.00;101529.63;11259685;26;20018;-95
2024/04/14 20:57:55;;;;;;;10.95;5.20;;;;;;;21.31;100.00;101551.16;11226694;26;20009;-96
2024/04/14 21:03:19;;;;;;;13.02;4.00;;;;;;;21.30;100.00;101550.28;11190402;26;19999;-93
2024/04/14 21:08:43;;;;;;;9.93;4.32;;;;;;;21.29;100.00;101547.63;11229237;26;20007;-93
2024/04/14 21:14:10;;;;;;;11.75;4.85;;;;;;;21.23;100.00;101531.59;11248533;26;20007;-94
2024/04/14 21:19:35;;;;;;;10.23;4.60;;;;;;;21.20;100.00;101528.97;11280331;26;20050;-96
2024/04/14 21:24:59;;;;;;;11.32;4.90;;;;;;;21.25;98.46;101524.41;11256682;26;20057;-96
2024/04/14 21:30:28;;;;;;;7.53;3.95;;;;;;;21.32;96.15;101536.84;11261380;26;20003;-94
2024/04/14 21:35:53;;;;;;;6.97;4.15;;;;;;;21.37;94.71;101560.03;11323858;26;20430;-94
2024/04/14 21:41:19;;;;;;;9.48;4.05;;;;;;;21.40;93.99;101573.38;11311589;26;20034;-95
2024/04/14 21:47:10;;;;;;;11.32;4.38;;;;;;;21.45;93.43;101562.59;11311726;26;20422;-92
2024/04/14 21:52:35;;;;;;;12.68;4.80;;;;;;;21.34;94.05;101553.78;11290378;26;20017;-95
2024/04/14 21:58:00;;;;;;;9.60;4.00;;;;;;;21.30;94.24;101527.91;11273459;26;20017;-95
2024/04/14 22:03:29;;;;;;;7.22;4.10;;;;;;;21.19;95.29;101522.72;11253239;26;20007;-94
2024/04/14 22:08:53;;;;;;;11.73;3.92;;;;;;;21.16;94.57;101533.50;11258657;26;20001;-96
2024/04/14 22:14:18;;;;;;;9.98;4.50;;;;;;;21.18;92.58;101536.16;11349023;26;20346;-94
2024/04/14 22:19:45;;;;;;;8.88;4.15;;;;;;;21.22;91.59;101543.25;11277139;26;20010;-94
2024/04/14 22:25:10;;;;;;;8.63;4.40;;;;;;;21.27;90.46;101542.25;11238744;26;20010;-95
2024/04/14 22:30:35;;;;;;;8.63;4.50;;;;;;;21.27;89.42;101527.94;11232799;26;20011;-96
2024/04/14 22:36:02;;;;;;;8.55;4.28;;;;;;;21.23;89.65;101521.75;11285142;26;20034;-96
2024/04/14 22:41:26;;;;;;;10.30;4.23;;;;;;;21.18;89.43;101528.09;11259596;26;20025;-95
2024/04/14 22:46:50;;;;;;;8.93;4.85;;;;;;;21.04;89.88;101529.16;11258960;26;20022;-95
2024/04/14 22:52:18;;;;;;;8.38;4.75;;;;;;;20.93;90.93;101511.47;11257904;26;20002;-94
2024/04/14 22:57:42;;;;;;;12.55;5.53;;;;;;;20.85;91.29;101484.72;11276119;26;20003;-96
2024/04/14 23:03:08;;;;;;;10.63;4.80;;;;;;;20.80;91.88;101478.53;11257672;26;20047;-95
2024/04/14 23:08:35;;;;;;;7.93;4.57;;;;;;;20.72;94.31;101476.88;11218068;26;20009;-89
2024/04/14 23:14:00;;;;;;;7.35;4.22;;;;;;;20.64;94.50;101498.44;11287941;26;20015;-89
2024/04/14 23:19:27;;;;;;;10.07;4.63;;;;;;;20.64;95.40;101504.69;11323189;26;20015;-95
2024/04/14 23:24:59;;;;;;;9.80;4.20;;;;;;;20.73;95.37;101501.00;11289644;26;20001;-94
2024/04/14 23:30:24;;;;;;;6.35;4.60;;;;;;;20.75;94.79;101499.16;11322869;26;20021;-95
2024/04/14 23:35:48;;;;;;;17.13;5.97;;;;;;;20.71;94.26;101475.97;11290182;26;20010;-96
2024/04/14 23:41:25;;;;;;;9.25;4.65;;;;;;;20.56;95.74;101438.63;11265914;26;19998;-95
2024/04/14 23:46:51;;;;;;;5.65;4.50;;;;;;;20.41;97.36;101442.44;11303629;26;20013;-95
2024/04/14 23:52:16;;;;;;;11.18;4.47;;;;;;;20.40;98.90;101454.06;11198172;26;20014;-95
2024/04/14 23:57:43;;;;;;;10.20;5.05;;;;;;;20.43;98.74;101488.88;11265771;26;20042;-95
